Eagarville, Illinois
Current Conditions -  °F | °C
As of 2:15 AM on Monday 26 Jan 2015 (Local Time) from K3LF Reporting Station
Overcast Overcast  
Wind Chill: 13°   Ceiling: 1300
Heat Index: 25°   Visibility: 10mi
Dew Point: 20°   Wind: 15mph
Humidity: 81%   Direction: 330°NNW
Pressure: 30.01"   Gusts: NA
Location:  39.11°N, 89.78°W
Report Text: K3LF 260815Z AUTO 33013KT 10SM OVC013 M04/M07 A3001 RMK AO2 T10381067
Loading
Personal Weather Stations






























Interactive Weather Map New forecast layout! Learn more

10-Day Weather Forecast

Advertisements
Track Severe Weather on mobile